Time;durP1;ratioP1;P1;durP2;ratioP2;P2;SDS_P1;SDS_P2;PMS_P1;PMS_P2;Temp;Humidity;BMP_temperature;BMP_pressure;BME280_temperature;BME280_humidity;BME280_pressure;Samples;Min_cycle;Max_cycle;Signal;HPM_P1;HPM_P2
2022/12/21 00:01:47;;;;;;;1.17;1.17;;;8.80;1.00;;;;;;5050991;28;20185;-67
2022/12/21 00:04:12;;;;;;;0.55;0.55;;;8.80;1.00;;;;;;5051076;28;20501;-68
2022/12/21 00:06:38;;;;;;;0.20;0.20;;;8.80;1.00;;;;;;5051151;28;20029;-68
2022/12/21 00:09:09;;;;;;;0.30;0.30;;;8.70;1.00;;;;;;5051252;28;20057;-67
2022/12/21 00:11:35;;;;;;;0.68;0.68;;;8.70;1.00;;;;;;5050942;28;20017;-67
2022/12/21 00:14:03;;;;;;;1.02;0.98;;;8.80;1.00;;;;;;5051042;28;20102;-69
2022/12/21 00:16:33;;;;;;;0.20;0.20;;;8.90;1.00;;;;;;5051010;28;20017;-67
2022/12/21 00:19:00;;;;;;;0.30;0.30;;;8.90;1.00;;;;;;5050852;28;20033;-67
2022/12/21 00:21:29;;;;;;;0.30;0.30;;;8.90;1.00;;;;;;5054786;28;20078;-67
2022/12/21 00:23:59;;;;;;;0.30;0.30;;;8.90;1.00;;;;;;5054884;28;20025;-67
2022/12/21 00:26:30;;;;;;;0.20;0.20;;;9.00;1.00;;;;;;5054923;28;20045;-68
2022/12/21 00:28:58;;;;;;;0.20;0.20;;;9.50;1.00;;;;;;5054797;28;20029;-66
2022/12/21 00:31:29;;;;;;;0.20;0.20;;;9.60;1.00;;;;;;5053279;28;20266;-66
2022/12/21 00:33:55;;;;;;;6.73;3.20;;;9.60;5.60;;;;;;5054821;28;20472;-67
2022/12/21 00:36:23;;;;;;;0.30;0.30;;;9.50;4.50;;;;;;5054609;28;20112;-68
2022/12/21 00:38:49;;;;;;;4.28;2.60;;;9.50;12.50;;;;;;5054619;28;20047;-69
2022/12/21 00:41:19;;;;;;;0.28;0.28;;;9.50;1.00;;;;;;5054544;28;20055;-68
2022/12/21 00:43:45;;;;;;;0.20;0.20;;;9.40;1.00;;;;;;5054413;28;20061;-67
2022/12/21 00:46:20;;;;;;;0.20;0.20;;;9.40;1.00;;;;;;5054443;28;20021;-68
2022/12/21 00:48:47;;;;;;;0.30;0.30;;;9.40;1.00;;;;;;5054257;28;20515;-67
2022/12/21 00:51:15;;;;;;;0.20;0.20;;;9.30;1.00;;;;;;5054419;28;20116;-68
2022/12/21 00:53:40;;;;;;;0.30;0.30;;;9.30;1.00;;;;;;5054349;28;20032;-67
2022/12/21 00:56:07;;;;;;;0.30;0.30;;;9.30;1.00;;;;;;5054327;28;20402;-68
2022/12/21 00:58:34;;;;;;;0.40;0.40;;;9.30;1.00;;;;;;5054076;28;20033;-67
2022/12/21 01:01:05;;;;;;;0.20;0.20;;;8.90;1.00;;;;;;5054284;28;20032;-67
2022/12/21 01:03:31;;;;;;;0.20;0.20;;;8.70;1.00;;;;;;5054198;28;20041;-67
2022/12/21 01:05:57;;;;;;;3.72;2.30;;;8.70;1.00;;;;;;5054152;28;20496;-67
2022/12/21 01:08:24;;;;;;;0.30;0.30;;;8.70;1.00;;;;;;5053844;28;20039;-66
2022/12/21 01:10:56;;;;;;;0.30;0.30;;;8.70;1.00;;;;;;5053869;28;20465;-67
2022/12/21 01:13:22;;;;;;;;;;;8.70;1.00;;;;;;5054622;28;20029;-67
2022/12/21 01:15:47;;;;;;;0.30;0.30;;;8.70;1.00;;;;;;5054072;28;20305;-66
2022/12/21 01:18:15;;;;;;;0.30;0.30;;;8.70;1.00;;;;;;5054021;28;20025;-67
2022/12/21 01:20:45;;;;;;;1.40;1.40;;;8.70;1.00;;;;;;5053981;28;20092;-68
2022/12/21 01:23:11;;;;;;;0.30;0.30;;;8.80;1.00;;;;;;5053798;28;20021;-67
2022/12/21 01:25:37;;;;;;;0.20;0.20;;;9.10;2.50;;;;;;5053716;28;20043;-68
2022/12/21 01:28:03;;;;;;;0.30;0.30;;;9.30;17.20;;;;;;5053649;28;20033;-69
2022/12/21 01:30:29;;;;;;;0.30;0.30;;;9.40;27.00;;;;;;5053610;28;20025;-67
2022/12/21 01:32:55;;;;;;;0.40;0.40;;;9.40;29.20;;;;;;5053248;28;20146;-67
2022/12/21 01:35:21;;;;;;;3.40;1.65;;;9.40;28.50;;;;;;5053755;28;20055;-67
2022/12/21 01:37:46;;;;;;;0.30;0.30;;;9.40;25.50;;;;;;5053472;28;20028;-68
2022/12/21 01:40:13;;;;;;;0.30;0.30;;;9.40;23.10;;;;;;5053341;28;20017;-68
2022/12/21 01:42:38;;;;;;;0.30;0.30;;;9.40;24.60;;;;;;5053341;28;20489;-67
2022/12/21 01:45:13;;;;;;;30.08;5.47;;;9.80;30.40;;;;;;5053270;28;20025;-68
2022/12/21 01:47:58;;;;;;;20.58;2.55;;;10.00;51.20;;;;;;5053351;28;20033;-67
2022/12/21 01:50:38;;;;;;;0.20;0.20;;;10.30;77.70;;;;;;5051846;28;20025;-67
2022/12/21 01:53:13;;;;;;;1.95;1.85;;;10.80;99.90;;;;;;5053295;28;20180;-66
2022/12/21 01:55:40;;;;;;;0.20;0.20;;;10.90;99.90;;;;;;5051879;28;20103;-68
2022/12/21 01:58:08;;;;;;;0.20;0.20;;;11.10;99.90;;;;;;5053125;28;20484;-67
2022/12/21 02:00:34;;;;;;;0.20;0.20;;;11.30;99.90;;;;;;5052958;28;20025;-68
2022/12/21 02:03:06;;;;;;;0.20;0.20;;;11.40;99.90;;;;;;5052951;28;20516;-67
2022/12/21 02:05:58;;;;;;;0.28;0.28;;;11.40;99.90;;;;;;5053078;28;20033;-67
2022/12/21 02:08:23;;;;;;;0.20;0.20;;;11.20;99.90;;;;;;5053051;28;20075;-68
2022/12/21 02:10:51;;;;;;;0.22;0.22;;;11.00;99.90;;;;;;5052967;28;20021;-67
2022/12/21 02:13:17;;;;;;;0.73;0.73;;;11.00;98.40;;;;;;5052751;28;20048;-67
2022/12/21 02:16:17;;;;;;;0.20;0.20;;;10.90;90.40;;;;;;5052887;28;20413;-68
2022/12/21 02:19:06;;;;;;;0.20;0.20;;;10.90;64.70;;;;;;5053067;28;20028;-68
2022/12/21 02:21:48;;;;;;;0.20;0.20;;;10.90;52.20;;;;;;5052695;28;20039;-68
2022/12/21 02:24:41;;;;;;;0.20;0.20;;;11.10;52.60;;;;;;5052706;28;20024;-67
2022/12/21 02:27:18;;;;;;;0.20;0.20;;;11.20;46.30;;;;;;5052727;28;20109;-67
2022/12/21 02:29:49;;;;;;;0.20;0.20;;;11.30;45.90;;;;;;5052809;28;20102;-66
2022/12/21 02:32:15;;;;;;;0.20;0.20;;;11.40;44.40;;;;;;5052653;28;20032;-66
2022/12/21 02:34:41;;;;;;;0.20;0.20;;;11.50;30.10;;;;;;5052551;28;20029;-67
2022/12/21 02:37:45;;;;;;;0.17;0.17;;;11.70;24.60;;;;;;5052425;28;20385;-67
2022/12/21 02:40:48;;;;;;;7.97;0.93;;;11.80;12.30;;;;;;5041573;28;20043;-69
2022/12/21 02:46:26;;;;;;;0.20;0.20;;;11.90;1.00;;;;;;5052596;28;20028;-67
2022/12/21 02:49:05;;;;;;;0.20;0.20;;;11.90;1.00;;;;;;5052074;28;20124;-67
2022/12/21 02:51:47;;;;;;;0.20;0.20;;;12.00;1.00;;;;;;5052197;28;20100;-66
2022/12/21 02:54:14;;;;;;;0.17;0.17;;;12.00;1.00;;;;;;5052092;28;20021;-67
2022/12/21 02:56:40;;;;;;;0.20;0.20;;;12.10;1.00;;;;;;5052050;28;20026;-67
2022/12/21 02:59:08;;;;;;;0.40;0.40;;;12.10;1.00;;;;;;5051900;28;20075;-66
2022/12/21 03:01:55;;;;;;;0.22;0.22;;;12.10;1.00;;;;;;5051817;28;20041;-67
2022/12/21 03:04:56;;;;;;;0.20;0.20;;;12.20;1.00;;;;;;5052027;28;20076;-65
2022/12/21 03:07:52;;;;;;;0.20;0.20;;;12.20;99.90;;;;;;5052029;28;20045;-66
2022/12/21 03:10:30;;;;;;;0.20;0.20;;;12.20;99.90;;;;;;5051957;28;20036;-67
2022/12/21 03:13:32;;;;;;;0.20;0.20;;;12.20;99.90;;;;;;5051602;28;20024;-66
2022/12/21 03:16:18;;;;;;;;;;;12.20;99.90;;;;;;5051991;28;20481;-66
2022/12/21 03:19:14;;;;;;;0.20;0.20;;;12.20;99.90;;;;;;5051913;28;20266;-67
2022/12/21 03:21:45;;;;;;;0.20;0.20;;;12.30;99.90;;;;;;5051681;28;20025;-69
2022/12/21 03:24:24;;;;;;;0.20;0.20;;;12.30;99.90;;;;;;5051311;28;20500;-67
2022/12/21 03:26:56;;;;;;;0.25;0.25;;;12.40;99.90;;;;;;5051412;28;20021;-66
2022/12/21 03:29:25;;;;;;;;;;;12.40;99.90;;;;;;5052197;28;20049;-67
2022/12/21 03:31:57;;;;;;;0.20;0.20;;;12.50;99.90;;;;;;5051457;28;19928;-67
2022/12/21 03:34:27;;;;;;;0.20;0.20;;;12.50;99.90;;;;;;5051444;28;20024;-67
2022/12/21 03:36:59;;;;;;;0.32;0.32;;;12.60;99.90;;;;;;5050123;28;20029;-66
2022/12/21 03:39:28;;;;;;;0.20;0.20;;;12.60;99.90;;;;;;5051357;28;20021;-67
2022/12/21 03:42:05;;;;;;;0.20;0.20;;;12.70;99.90;;;;;;5051301;28;20035;-67
2022/12/21 03:44:39;;;;;;;0.20;0.20;;;12.70;99.90;;;;;;5051312;28;20021;-67
2022/12/21 03:47:14;;;;;;;0.20;0.20;;;12.70;99.90;;;;;;5051055;28;20017;-67
2022/12/21 03:49:45;;;;;;;0.20;0.20;;;12.70;99.90;;;;;;5051209;28;20040;-67
2022/12/21 03:52:18;;;;;;;0.20;0.20;;;12.80;99.90;;;;;;5050959;28;20071;-68
2022/12/21 03:55:05;;;;;;;0.20;0.20;;;12.60;99.90;;;;;;5050793;28;20044;-67
2022/12/21 03:57:32;;;;;;;0.20;0.20;;;12.60;99.90;;;;;;5051166;28;20024;-66
2022/12/21 04:00:00;;;;;;;0.30;0.30;;;12.60;99.90;;;;;;5050017;28;20055;-66
2022/12/21 04:02:30;;;;;;;0.20;0.20;;;12.60;99.90;;;;;;5051027;28;20423;-66
2022/12/21 04:05:17;;;;;;;0.20;0.20;;;12.60;99.90;;;;;;5051027;28;20029;-66
2022/12/21 04:07:45;;;;;;;0.20;0.20;;;12.60;99.90;;;;;;5050947;28;20032;-67
2022/12/21 04:10:17;;;;;;;0.20;0.20;;;12.60;99.90;;;;;;5050818;28;20028;-66
2022/12/21 04:12:43;;;;;;;0.30;0.30;;;12.60;99.90;;;;;;5050952;28;20108;-66
2022/12/21 04:15:18;;;;;;;0.20;0.20;;;12.50;99.90;;;;;;5050924;28;20544;-67
2022/12/21 04:17:47;;;;;;;0.20;0.20;;;12.50;99.90;;;;;;5050880;28;20048;-66
2022/12/21 04:20:16;;;;;;;0.20;0.20;;;12.50;99.90;;;;;;5050988;28;20461;-66
2022/12/21 04:28:20;;;;;;;1.30;1.20;;;12.50;99.90;;;;;;5050904;28;20135;-66
2022/12/21 04:30:46;;;;;;;0.77;0.77;;;12.50;99.90;;;;;;5050817;28;20017;-65
2022/12/21 04:33:15;;;;;;;0.20;0.20;;;12.50;99.90;;;;;;5050833;28;20501;-66
2022/12/21 04:37:30;;;;;;;0.17;0.17;;;12.50;99.90;;;;;;5050963;28;20062;-67
2022/12/21 04:38:29;;;;;;;0.20;0.20;;;12.50;99.90;;;;;;5050639;28;20056;-67
2022/12/21 04:40:56;;;;;;;0.20;0.20;;;12.50;99.90;;;;;;5050662;28;20029;-67
2022/12/21 04:43:23;;;;;;;0.20;0.20;;;12.50;99.90;;;;;;5049409;28;20123;-67
2022/12/21 04:45:49;;;;;;;1.85;1.75;;;12.50;99.90;;;;;;5050736;28;20714;-66
2022/12/21 04:48:15;;;;;;;0.25;0.25;;;12.40;99.90;;;;;;5050529;28;20037;-68
2022/12/21 04:50:42;;;;;;;0.20;0.20;;;12.50;99.90;;;;;;5050615;28;20382;-67
2022/12/21 04:53:09;;;;;;;0.10;0.10;;;12.40;99.90;;;;;;5050571;28;20033;-67
2022/12/21 04:55:34;;;;;;;0.95;0.95;;;12.40;99.90;;;;;;5050610;28;20025;-67
2022/12/21 04:58:00;;;;;;;0.52;0.52;;;12.40;99.90;;;;;;5050427;28;20021;-68
2022/12/21 05:00:26;;;;;;;0.28;0.28;;;12.40;99.90;;;;;;5050573;28;20382;-67
2022/12/21 05:02:51;;;;;;;0.10;0.10;;;12.40;99.90;;;;;;5050184;28;20087;-67
2022/12/21 05:05:17;;;;;;;0.20;0.20;;;12.40;99.90;;;;;;5050627;28;20028;-67
2022/12/21 05:07:43;;;;;;;0.20;0.20;;;12.40;99.90;;;;;;5053164;28;20037;-66
2022/12/21 05:10:09;;;;;;;0.10;0.10;;;12.40;99.90;;;;;;5054337;28;20029;-66
2022/12/21 05:12:35;;;;;;;0.20;0.20;;;12.30;99.90;;;;;;5053910;28;20108;-68
2022/12/21 05:15:00;;;;;;;0.20;0.20;;;12.30;99.90;;;;;;5054263;28;20100;-67
2022/12/21 05:17:26;;;;;;;0.20;0.20;;;12.30;99.90;;;;;;5053941;28;20025;-69
2022/12/21 05:19:52;;;;;;;0.20;0.20;;;12.30;99.90;;;;;;5054166;28;20108;-68
2022/12/21 05:22:20;;;;;;;3.25;3.05;;;12.20;99.90;;;;;;5053959;28;20064;-66
2022/12/21 05:24:46;;;;;;;0.20;0.20;;;12.20;99.90;;;;;;5052674;28;20481;-67
2022/12/21 05:27:13;;;;;;;0.30;0.30;;;12.20;99.90;;;;;;5053587;28;20037;-67
2022/12/21 05:29:38;;;;;;;0.20;0.20;;;12.10;99.90;;;;;;5053845;28;20496;-66
2022/12/21 05:32:04;;;;;;;0.20;0.20;;;12.20;99.90;;;;;;5053766;28;20029;-66
2022/12/21 05:34:30;;;;;;;0.20;0.20;;;12.20;99.90;;;;;;5053523;28;20531;-67
2022/12/21 05:36:56;;;;;;;0.20;0.20;;;12.20;99.90;;;;;;5053495;28;20017;-68
2022/12/21 05:39:21;;;;;;;0.65;0.40;;;12.20;99.90;;;;;;5053675;28;20063;-67
2022/12/21 05:41:47;;;;;;;0.20;0.20;;;12.10;99.90;;;;;;5053466;28;20374;-67
2022/12/21 05:44:13;;;;;;;0.25;0.25;;;12.10;99.90;;;;;;5053659;28;20033;-66
2022/12/21 05:46:39;;;;;;;0.20;0.20;;;12.00;99.90;;;;;;5053202;28;20432;-66
2022/12/21 05:49:04;;;;;;;0.20;0.20;;;12.00;99.90;;;;;;5053440;28;20028;-67
2022/12/21 05:51:30;;;;;;;0.30;0.30;;;12.00;99.90;;;;;;5053413;28;20029;-66
2022/12/21 05:53:56;;;;;;;0.20;0.20;;;12.00;99.90;;;;;;5053191;28;20402;-67
2022/12/21 05:56:22;;;;;;;0.20;0.20;;;11.90;99.90;;;;;;5053215;28;20056;-68
2022/12/21 05:58:49;;;;;;;0.20;0.20;;;11.80;99.90;;;;;;5053281;28;20164;-67
2022/12/21 06:01:15;;;;;;;1.35;1.00;;;11.80;99.90;;;;;;5053001;28;20025;-66
2022/12/21 06:03:41;;;;;;;0.20;0.20;;;11.80;99.90;;;;;;5053068;28;20033;-66
2022/12/21 06:06:15;;;;;;;0.55;0.55;;;11.80;99.90;;;;;;5053123;28;20131;-66
2022/12/21 06:08:41;;;;;;;0.73;0.73;;;11.80;99.90;;;;;;5053001;28;20032;-66
2022/12/21 06:11:11;;;;;;;0.20;0.20;;;11.80;99.90;;;;;;5052676;28;20032;-66
2022/12/21 06:13:37;;;;;;;0.30;0.30;;;11.70;99.90;;;;;;5052874;28;20028;-67
2022/12/21 06:16:09;;;;;;;0.20;0.20;;;11.70;99.90;;;;;;5052806;28;20366;-67
2022/12/21 06:18:35;;;;;;;0.30;0.30;;;11.70;99.90;;;;;;5052741;28;20059;-66
2022/12/21 06:21:01;;;;;;;0.28;0.28;;;11.80;99.90;;;;;;5052829;28;20528;-67
2022/12/21 06:23:27;;;;;;;0.20;0.20;;;11.80;99.90;;;;;;5051306;28;20482;-66
2022/12/21 06:25:57;;;;;;;0.20;0.20;;;11.90;99.90;;;;;;5052702;28;20075;-67
2022/12/21 06:28:24;;;;;;;0.20;0.20;;;11.90;99.90;;;;;;5052536;28;20102;-67
2022/12/21 06:30:50;;;;;;;0.20;0.20;;;11.90;99.90;;;;;;5052696;28;20025;-66
2022/12/21 06:33:18;;;;;;;0.30;0.30;;;12.00;99.90;;;;;;5052500;28;20052;-68
2022/12/21 06:35:44;;;;;;;0.20;0.20;;;11.90;99.90;;;;;;5052640;28;20021;-68
2022/12/21 06:38:09;;;;;;;0.20;0.20;;;12.00;99.90;;;;;;5052262;28;20036;-67
2022/12/21 06:40:35;;;;;;;0.20;0.20;;;11.90;99.90;;;;;;5052404;28;20029;-68
2022/12/21 06:43:00;;;;;;;0.20;0.20;;;11.80;99.90;;;;;;5052226;28;20055;-67
2022/12/21 06:45:26;;;;;;;0.20;0.20;;;11.80;99.90;;;;;;5052416;28;20025;-67
2022/12/21 06:47:55;;;;;;;1.27;1.27;;;11.90;99.90;;;;;;5050824;28;20041;-67
2022/12/21 06:50:21;;;;;;;0.20;0.20;;;11.80;99.90;;;;;;5052229;28;20021;-67
2022/12/21 06:52:48;;;;;;;0.30;0.30;;;11.80;99.90;;;;;;5051906;28;20033;-67
2022/12/21 06:55:14;;;;;;;0.20;0.20;;;11.90;99.90;;;;;;5051831;28;20024;-67
2022/12/21 06:57:39;;;;;;;0.30;0.30;;;11.90;99.90;;;;;;5052129;28;20025;-67
2022/12/21 07:00:06;;;;;;;0.30;0.30;;;11.90;99.90;;;;;;5052027;28;20040;-67
2022/12/21 07:02:31;;;;;;;4.65;3.30;;;12.00;99.90;;;;;;5051731;28;20068;-67
2022/12/21 07:04:57;;;;;;;0.30;0.30;;;12.00;99.90;;;;;;5052014;28;20053;-67
2022/12/21 07:07:23;;;;;;;0.20;0.20;;;12.00;99.90;;;;;;5051595;28;20037;-67
2022/12/21 07:09:49;;;;;;;0.30;0.30;;;12.00;99.90;;;;;;5051887;28;20029;-67
2022/12/21 07:25:44;;;;;;;0.20;0.20;;;12.80;99.90;;;;;;5086778;27;20386;-62
2022/12/21 07:28:09;;;;;;;1.13;0.98;;;11.90;99.90;;;;;;5087663;28;20062;-62
2022/12/21 07:30:35;;;;;;;0.20;0.20;;;11.90;99.90;;;;;;5087437;28;20037;-63
2022/12/21 07:33:01;;;;;;;0.22;0.22;;;11.90;99.90;;;;;;5070228;28;20052;-63
2022/12/21 07:35:26;;;;;;;0.20;0.20;;;11.90;99.90;;;;;;5088525;28;20506;-64
2022/12/21 07:37:52;;;;;;;0.45;0.45;;;11.80;99.90;;;;;;5088539;28;20461;-64
2022/12/21 07:40:18;;;;;;;0.20;0.20;;;11.90;99.90;;;;;;5088791;28;20026;-63
2022/12/21 07:42:45;;;;;;;1.38;1.27;;;11.90;99.90;;;;;;5088331;28;20548;-65
2022/12/21 07:45:11;;;;;;;0.30;0.30;;;11.90;99.90;;;;;;5087809;28;20119;-64
2022/12/21 07:47:36;;;;;;;0.20;0.20;;;11.90;99.90;;;;;;5087979;28;20130;-63
2022/12/21 07:50:04;;;;;;;0.20;0.20;;;12.00;99.90;;;;;;5087671;28;20028;-63
2022/12/21 07:52:32;;;;;;;0.20;0.20;;;12.00;99.90;;;;;;5085959;28;20031;-63
2022/12/21 07:54:58;;;;;;;0.50;0.50;;;12.00;99.90;;;;;;5070965;28;20476;-64
2022/12/21 07:57:24;;;;;;;0.30;0.30;;;12.00;99.90;;;;;;5086345;28;20023;-63
2022/12/21 07:59:50;;;;;;;0.20;0.20;;;12.00;99.90;;;;;;5087222;28;20028;-65
2022/12/21 08:02:16;;;;;;;0.20;0.20;;;12.00;99.90;;;;;;5069627;28;20025;-64
2022/12/21 08:04:42;;;;;;;0.20;0.20;;;12.00;99.90;;;;;;5068957;28;20119;-63
2022/12/21 08:07:08;;;;;;;0.20;0.20;;;12.00;99.90;;;;;;5086412;28;20100;-64
2022/12/21 08:09:34;;;;;;;0.20;0.20;;;12.10;99.90;;;;;;5086122;28;20033;-64
2022/12/21 08:12:01;;;;;;;0.20;0.20;;;12.00;99.90;;;;;;5074072;28;20120;-62
2022/12/21 08:14:26;;;;;;;0.30;0.30;;;12.10;99.90;;;;;;5087627;28;20606;-62
2022/12/21 08:16:52;;;;;;;0.20;0.20;;;12.10;99.90;;;;;;5086365;28;20020;-62
2022/12/21 08:19:18;;;;;;;1.50;1.42;;;12.20;99.90;;;;;;5086216;28;20043;-64
2022/12/21 08:21:44;;;;;;;0.20;0.20;;;12.30;99.90;;;;;;5082503;28;20012;-65
2022/12/21 08:24:10;;;;;;;1.90;1.80;;;12.30;99.90;;;;;;5066012;28;20052;-64
2022/12/21 08:26:37;;;;;;;0.20;0.20;;;12.30;99.90;;;;;;5054361;28;20477;-62
2022/12/21 08:29:03;;;;;;;4.25;1.30;;;12.40;99.90;;;;;;5053488;28;20115;-62
2022/12/21 08:31:29;;;;;;;0.35;0.35;;;12.30;99.90;;;;;;5053695;28;20073;-64
2022/12/21 08:33:55;;;;;;;0.20;0.20;;;12.20;99.90;;;;;;5052926;28;20501;-64
2022/12/21 08:36:22;;;;;;;0.30;0.30;;;12.20;99.90;;;;;;5063255;28;20438;-65
2022/12/21 08:38:50;;;;;;;0.30;0.30;;;12.20;99.90;;;;;;5070608;28;20079;-66
2022/12/21 08:41:16;;;;;;;0.30;0.30;;;12.20;99.90;;;;;;5063062;28;20045;-65
2022/12/21 08:43:42;;;;;;;0.20;0.20;;;12.20;99.90;;;;;;5057890;28;20051;-65
2022/12/21 08:46:11;;;;;;;2.72;2.50;;;12.20;99.90;;;;;;5072398;28;20032;-64
2022/12/21 08:48:37;;;;;;;0.25;0.25;;;12.30;99.90;;;;;;5061842;28;20035;-65
2022/12/21 08:51:07;;;;;;;0.50;0.50;;;12.20;99.90;;;;;;5060388;28;20499;-66
2022/12/21 08:53:34;;;;;;;0.20;0.20;;;12.30;99.90;;;;;;5064233;28;20120;-66
2022/12/21 08:56:00;;;;;;;0.20;0.20;;;12.30;99.90;;;;;;5068767;28;20036;-66
2022/12/21 08:58:26;;;;;;;0.20;0.20;;;12.40;99.90;;;;;;5057331;28;20041;-66
2022/12/21 09:00:53;;;;;;;0.20;0.20;;;12.40;99.90;;;;;;5071396;28;20025;-66
2022/12/21 09:03:20;;;;;;;0.20;0.20;;;12.50;99.90;;;;;;5073383;28;20480;-66
2022/12/21 09:05:46;;;;;;;0.20;0.20;;;12.50;99.90;;;;;;5072874;28;20165;-66
2022/12/21 09:08:12;;;;;;;0.30;0.30;;;12.50;99.90;;;;;;5070424;28;20488;-65
2022/12/21 09:10:38;;;;;;;0.20;0.20;;;12.50;99.90;;;;;;5054411;28;20017;-67
2022/12/21 09:13:04;;;;;;;0.20;0.20;;;12.50;99.90;;;;;;5063592;28;20020;-66
2022/12/21 09:15:30;;;;;;;2.38;1.88;;;12.50;99.90;;;;;;5069884;28;20087;-68
2022/12/21 09:17:56;;;;;;;0.20;0.20;;;12.50;99.90;;;;;;5066606;28;20028;-66
2022/12/21 09:20:21;;;;;;;34.50;3.15;;;12.50;99.90;;;;;;5056241;28;20033;-66
2022/12/21 09:22:47;;;;;;;0.20;0.20;;;12.60;99.90;;;;;;5063706;28;20027;-65
2022/12/21 09:25:13;;;;;;;0.20;0.20;;;12.70;99.90;;;;;;5072668;28;20056;-67
2022/12/21 09:27:39;;;;;;;0.20;0.20;;;12.70;99.90;;;;;;5061072;28;20020;-67
2022/12/21 09:30:05;;;;;;;0.20;0.20;;;12.70;99.90;;;;;;5066546;28;20117;-66
2022/12/21 09:32:33;;;;;;;1.55;1.45;;;12.70;99.90;;;;;;5054072;28;20468;-67
2022/12/21 09:34:59;;;;;;;0.20;0.20;;;12.80;99.90;;;;;;5068811;28;20033;-67
2022/12/21 09:37:24;;;;;;;0.20;0.20;;;12.70;99.90;;;;;;5054815;28;20617;-67
2022/12/21 09:39:50;;;;;;;0.20;0.20;;;12.80;99.90;;;;;;5063320;28;20036;-66
2022/12/21 09:42:28;;;;;;;0.20;0.20;;;12.80;99.90;;;;;;5056951;28;20028;-68
2022/12/21 09:44:59;;;;;;;1.33;1.33;;;12.80;99.90;;;;;;5067337;28;20064;-66
2022/12/21 09:47:40;;;;;;;0.30;0.30;;;12.80;99.90;;;;;;5064866;28;20107;-66
2022/12/21 09:50:15;;;;;;;0.20;0.20;;;12.80;99.90;;;;;;5053687;28;20484;-65
2022/12/21 09:52:47;;;;;;;0.20;0.20;;;12.80;99.90;;;;;;5066356;28;20032;-66
2022/12/21 09:55:20;;;;;;;0.20;0.20;;;12.90;99.90;;;;;;5068116;28;20024;-67
2022/12/21 09:57:52;;;;;;;0.20;0.20;;;12.90;99.90;;;;;;5050835;28;20033;-66
2022/12/21 10:00:23;;;;;;;0.20;0.20;;;12.90;99.90;;;;;;5053296;28;20431;-66
2022/12/21 10:03:04;;;;;;;0.90;0.90;;;12.90;99.90;;;;;;5064972;28;20039;-67
2022/12/21 10:06:10;;;;;;;0.20;0.20;;;13.00;99.90;;;;;;5051201;28;20079;-67
2022/12/21 10:09:00;;;;;;;0.30;0.30;;;13.00;99.90;;;;;;5052812;28;20021;-68
2022/12/21 10:11:58;;;;;;;0.20;0.20;;;13.00;99.90;;;;;;5063035;28;20024;-68
2022/12/21 10:14:47;;;;;;;0.20;0.20;;;13.00;99.90;;;;;;5065912;28;20094;-67
2022/12/21 10:17:41;;;;;;;0.25;0.25;;;13.00;99.90;;;;;;5068349;28;20038;-67
2022/12/21 10:21:00;;;;;;;0.20;0.20;;;12.90;99.90;;;;;;5068693;28;20055;-67
2022/12/21 10:23:34;;;;;;;0.20;0.20;;;12.90;99.90;;;;;;5008973;28;20038;-67
2022/12/21 10:26:03;;;;;;;0.20;0.20;;;12.90;99.90;;;;;;5069468;28;20037;-66
2022/12/21 10:28:53;;;;;;;0.25;0.25;;;12.90;99.90;;;;;;5071832;28;20032;-66
2022/12/21 10:31:35;;;;;;;0.20;0.20;;;12.90;99.90;;;;;;5071468;28;20021;-66
2022/12/21 10:34:05;;;;;;;0.20;0.20;;;12.90;99.90;;;;;;5070260;28;20032;-68
2022/12/21 10:36:36;;;;;;;0.20;0.20;;;12.80;99.90;;;;;;5071657;28;20051;-69
2022/12/21 10:39:04;;;;;;;0.20;0.20;;;12.80;99.90;;;;;;5071741;28;20104;-68
2022/12/21 10:41:35;;;;;;;0.60;0.60;;;12.80;99.90;;;;;;5071492;28;20031;-68
2022/12/21 10:44:01;;;;;;;0.82;0.82;;;12.80;99.90;;;;;;5071557;28;20082;-69
2022/12/21 10:46:33;;;;;;;0.20;0.20;;;12.60;99.90;;;;;;5070024;28;20031;-68
2022/12/21 10:49:13;;;;;;;0.20;0.20;;;12.50;99.90;;;;;;5070847;28;20031;-72
2022/12/21 10:51:39;;;;;;;0.20;0.20;;;12.50;99.90;;;;;;5071286;28;20032;-79
2022/12/21 10:54:07;;;;;;;0.20;0.20;;;12.50;84.00;;;;;;5071884;28;20024;-79
2022/12/21 10:56:46;;;;;;;0.20;0.20;;;12.50;93.90;;;;;;5071733;28;20032;-79
2022/12/21 10:59:35;;;;;;;0.20;0.20;;;12.60;99.40;;;;;;5072377;28;20089;-78
2022/12/21 11:02:05;;;;;;;0.20;0.20;;;12.80;99.90;;;;;;5071207;28;20068;-75
2022/12/21 11:04:32;;;;;;;0.20;0.20;;;12.80;99.90;;;;;;5071436;28;20029;-77
2022/12/21 11:07:23;;;;;;;0.45;0.45;;;12.80;30.00;;;;;;5071337;28;20031;-78
2022/12/21 11:09:58;;;;;;;0.20;0.20;;;12.80;1.00;;;;;;5065308;28;20048;-78
2022/12/21 11:12:25;;;;;;;0.20;0.20;;;12.70;1.00;;;;;;5051538;28;20121;-79
2022/12/21 11:14:53;;;;;;;0.30;0.30;;;12.60;1.00;;;;;;5051078;28;20461;-76
2022/12/21 11:17:28;;;;;;;0.20;0.20;;;12.60;1.00;;;;;;5051211;28;20040;-78
2022/12/21 11:20:16;;;;;;;0.30;0.30;;;12.60;1.00;;;;;;5051226;28;20021;-77
2022/12/21 11:22:45;;;;;;;0.20;0.20;;;12.70;1.00;;;;;;5051058;28;20059;-77
2022/12/21 11:25:24;;;;;;;0.20;0.20;;;12.70;1.00;;;;;;5050710;28;20052;-77
2022/12/21 11:27:54;;;;;;;0.20;0.20;;;12.70;1.00;;;;;;5050925;28;20380;-76
2022/12/21 11:30:25;;;;;;;0.28;0.28;;;12.60;1.00;;;;;;5051040;28;20044;-73
2022/12/21 11:32:53;;;;;;;0.20;0.20;;;12.60;99.90;;;;;;5050966;28;20029;-73
2022/12/21 11:35:25;;;;;;;0.20;0.20;;;12.60;99.90;;;;;;5059454;28;20021;-74
2022/12/21 11:37:54;;;;;;;0.20;0.20;;;12.60;99.90;;;;;;5060247;28;20028;-73
2022/12/21 11:40:23;;;;;;;0.20;0.20;;;12.60;99.90;;;;;;5068528;28;20028;-73
2022/12/21 11:42:59;;;;;;;0.35;0.35;;;12.60;99.90;;;;;;5071366;28;20431;-77
2022/12/21 11:45:47;;;;;;;0.30;0.30;;;12.60;99.90;;;;;;5072575;28;20063;-78
2022/12/21 11:48:35;;;;;;;0.20;0.20;;;12.60;99.90;;;;;;5074066;28;20031;-77
2022/12/21 11:51:12;;;;;;;0.20;0.20;;;12.70;99.90;;;;;;5030678;28;20119;-77
2022/12/21 11:54:11;;;;;;;0.20;0.20;;;12.70;99.90;;;;;;5072215;28;20024;-76
2022/12/21 11:56:46;;;;;;;0.20;0.20;;;12.70;99.90;;;;;;5071862;28;20023;-75
2022/12/21 11:59:33;;;;;;;0.20;0.20;;;12.70;99.90;;;;;;5070545;28;20095;-74
2022/12/21 12:02:28;;;;;;;0.20;0.20;;;12.80;99.90;;;;;;5074109;28;20083;-74
2022/12/21 12:05:19;;;;;;;0.20;0.20;;;12.80;99.90;;;;;;5056713;28;20175;-74
2022/12/21 12:07:51;;;;;;;0.98;0.98;;;12.90;99.90;;;;;;5074724;28;20516;-74
2022/12/21 12:10:38;;;;;;;0.20;0.20;;;12.90;99.90;;;;;;5075374;28;20021;-74
2022/12/21 12:13:12;;;;;;;0.20;0.20;;;12.90;99.90;;;;;;5074412;28;20056;-74
2022/12/21 12:15:46;;;;;;;0.20;0.20;;;12.90;99.90;;;;;;5074082;28;20016;-74
2022/12/21 12:18:36;;;;;;;0.20;0.20;;;13.00;99.90;;;;;;5074121;28;20055;-72
2022/12/21 12:21:27;;;;;;;0.20;0.20;;;13.00;99.90;;;;;;5074139;28;20032;-72
2022/12/21 12:23:58;;;;;;;0.20;0.20;;;13.10;99.90;;;;;;5073884;28;20048;-70
2022/12/21 12:27:13;;;;;;;0.20;0.20;;;13.10;99.90;;;;;;5073857;28;20046;-71
2022/12/21 12:30:03;;;;;;;8.38;3.38;;;13.10;99.90;;;;;;5065490;28;20032;-70
2022/12/21 12:32:53;;;;;;;0.20;0.20;;;13.20;99.90;;;;;;5073897;28;20023;-70
2022/12/21 12:35:35;;;;;;;0.20;0.20;;;13.30;99.90;;;;;;5074044;28;20548;-71
2022/12/21 12:38:25;;;;;;;0.20;0.20;;;13.30;99.90;;;;;;5073840;28;20123;-69
2022/12/21 12:40:50;;;;;;;0.20;0.20;;;13.40;99.90;;;;;;5072344;28;20029;-71
2022/12/21 12:43:38;;;;;;;0.20;0.20;;;13.40;99.90;;;;;;5073604;28;20020;-71
2022/12/21 12:46:24;;;;;;;0.20;0.20;;;13.30;99.90;;;;;;5073734;28;20029;-73
2022/12/21 12:49:06;;;;;;;0.20;0.20;;;13.30;99.90;;;;;;5073668;28;20593;-70
2022/12/21 12:51:37;;;;;;;;;;;13.20;99.90;;;;;;5072562;28;20024;-73
2022/12/21 12:54:06;;;;;;;0.20;0.20;;;13.20;99.90;;;;;;5073662;28;19905;-74
2022/12/21 12:56:53;;;;;;;0.20;0.20;;;13.00;99.90;;;;;;5073588;28;20033;-74
2022/12/21 12:59:43;;;;;;;0.20;0.20;;;12.90;99.90;;;;;;5073273;28;20501;-77
2022/12/21 13:02:43;;;;;;;0.20;0.20;;;12.80;99.90;;;;;;5073750;28;20021;-82
2022/12/21 13:06:03;;;;;;;0.20;0.20;;;12.70;99.90;;;;;;5073457;28;20036;-75
2022/12/21 13:08:44;;;;;;;2.63;2.08;;;12.60;99.90;;;;;;5028354;28;20119;-78
2022/12/21 13:11:29;;;;;;;0.20;0.20;;;12.50;99.90;;;;;;5073812;28;20033;-79
2022/12/21 13:14:04;;;;;;;0.20;0.20;;;12.60;99.90;;;;;;5074113;28;20028;-77
2022/12/21 13:16:43;;;;;;;0.20;0.20;;;12.60;99.90;;;;;;5091144;28;20041;-80
2022/12/21 13:19:17;;;;;;;0.20;0.20;;;12.60;99.90;;;;;;5092655;28;20029;-78
2022/12/21 13:21:45;;;;;;;0.20;0.20;;;12.50;99.90;;;;;;5096363;28;20073;-82
2022/12/21 13:24:14;;;;;;;0.20;0.20;;;12.50;99.90;;;;;;5099321;28;20048;-78
2022/12/21 13:26:57;;;;;;;0.20;0.20;;;12.40;99.90;;;;;;5096550;28;20028;-82
2022/12/21 13:29:44;;;;;;;0.13;0.13;;;12.40;99.90;;;;;;5092016;28;20112;-80
2022/12/21 13:32:13;;;;;;;0.20;0.20;;;12.40;99.90;;;;;;5088204;28;20111;-82
2022/12/21 13:34:57;;;;;;;0.13;0.13;;;12.50;1.00;;;;;;5073731;28;20108;-80
2022/12/21 13:37:23;;;;;;;0.20;0.20;;;12.50;1.00;;;;;;5081437;28;20044;-80
2022/12/21 13:40:36;;;;;;;0.20;0.20;;;12.50;1.00;;;;;;5079337;28;20029;-77